createdAt,value
2019-05-29T00:00:41.906Z,11.10
2019-05-29T00:03:10.581Z,11.00
2019-05-29T00:05:39.142Z,11.00
2019-05-29T00:08:08.232Z,11.00
2019-05-29T00:10:36.799Z,11.00
2019-05-29T00:13:06.218Z,11.00
2019-05-29T00:15:34.788Z,11.00
2019-05-29T00:18:03.303Z,11.00
2019-05-29T00:20:31.923Z,11.10
2019-05-29T00:23:00.392Z,11.20
2019-05-29T00:25:28.915Z,11.20
2019-05-29T00:27:57.363Z,11.10
2019-05-29T00:30:25.834Z,11.10
2019-05-29T00:32:54.283Z,11.10
2019-05-29T00:35:22.755Z,11.10
2019-05-29T00:37:51.216Z,11.10
2019-05-29T00:40:19.899Z,11.00
2019-05-29T00:42:48.431Z,11.00
2019-05-29T00:45:17.717Z,10.90
2019-05-29T00:47:46.359Z,10.90
2019-05-29T00:50:16.163Z,11.00
2019-05-29T00:52:44.685Z,11.00
2019-05-29T00:55:14.595Z,10.90
2019-05-29T00:57:43.316Z,11.00
2019-05-29T01:00:13.159Z,11.20
2019-05-29T01:02:41.791Z,11.30
2019-05-29T01:05:11.877Z,11.30
2019-05-29T01:07:40.483Z,11.30
2019-05-29T01:10:09.079Z,11.20
2019-05-29T01:12:37.540Z,11.50
2019-05-29T01:15:07.833Z,11.60
2019-05-29T01:17:36.295Z,11.50
2019-05-29T01:20:06.679Z,11.60
2019-05-29T01:22:35.197Z,11.60
2019-05-29T01:25:03.734Z,11.50
2019-05-29T01:27:32.192Z,11.50
2019-05-29T01:30:00.732Z,11.50
2019-05-29T01:32:29.248Z,11.60
2019-05-29T01:34:57.708Z,11.60
2019-05-29T01:37:26.478Z,11.50
2019-05-29T01:39:55.117Z,11.40
2019-05-29T01:42:23.644Z,11.50
2019-05-29T01:45:06.392Z,11.50
2019-05-29T01:47:22.287Z,11.60
2019-05-29T01:49:50.751Z,11.60
2019-05-29T01:52:19.645Z,11.50
2019-05-29T01:54:48.363Z,11.50
2019-05-29T01:57:17.756Z,11.50
2019-05-29T01:59:46.608Z,11.50
2019-05-29T02:02:15.752Z,11.50
2019-05-29T02:04:47.969Z,11.50
2019-05-29T02:07:17.824Z,11.50
2019-05-29T02:09:46.420Z,11.50
2019-05-29T02:12:16.192Z,11.50
2019-05-29T02:14:44.871Z,11.40
2019-05-29T02:17:13.331Z,11.50
2019-05-29T02:19:41.776Z,11.40
2019-05-29T02:22:10.236Z,11.50
2019-05-29T02:24:38.679Z,11.50
2019-05-29T02:27:07.202Z,11.50
2019-05-29T02:29:35.679Z,11.50
2019-05-29T02:32:04.279Z,11.60
2019-05-29T02:34:32.815Z,11.50
2019-05-29T02:37:01.265Z,11.60
2019-05-29T02:39:29.760Z,11.60
2019-05-29T02:41:58.392Z,11.60
2019-05-29T02:44:27.458Z,11.60
2019-05-29T02:46:56.387Z,11.60
2019-05-29T02:49:25.747Z,11.60
2019-05-29T02:51:54.616Z,11.60
2019-05-29T02:54:24.700Z,11.60
2019-05-29T02:56:53.334Z,11.60
2019-05-29T02:59:23.468Z,11.70
2019-05-29T03:01:51.979Z,11.70
2019-05-29T03:04:21.725Z,11.60
2019-05-29T03:06:50.500Z,11.60
2019-05-29T03:09:19.100Z,11.60
2019-05-29T03:11:47.613Z,11.60
2019-05-29T03:14:16.085Z,11.70
2019-05-29T03:16:44.619Z,11.70
2019-05-29T03:19:13.232Z,11.80
2019-05-29T03:21:41.751Z,11.80
2019-05-29T03:24:10.215Z,11.80
2019-05-29T03:26:38.770Z,11.80
2019-05-29T03:29:07.279Z,11.70
2019-05-29T03:31:43.417Z,11.70
2019-05-29T03:34:05.917Z,11.70
2019-05-29T03:36:42.710Z,11.70
2019-05-29T03:39:06.588Z,11.80
2019-05-29T03:41:35.067Z,11.80
2019-05-29T03:44:03.728Z,11.70
2019-05-29T03:46:41.193Z,11.70
2019-05-29T03:49:02.443Z,11.70
2019-05-29T03:51:32.612Z,11.80
2019-05-29T03:54:01.167Z,11.90
2019-05-29T03:56:30.565Z,11.90
2019-05-29T03:58:59.369Z,11.90
2019-05-29T04:01:29.150Z,11.90
2019-05-29T04:03:58.224Z,11.90
2019-05-29T04:06:27.022Z,11.80
2019-05-29T04:08:55.713Z,12.00
2019-05-29T04:11:24.177Z,12.00
2019-05-29T04:13:52.695Z,11.90
2019-05-29T04:16:23.703Z,11.90
2019-05-29T04:18:52.868Z,11.90
2019-05-29T04:21:22.495Z,11.90
2019-05-29T04:23:51.496Z,11.90
2019-05-29T04:26:21.952Z,12.00
2019-05-29T04:28:50.850Z,11.90
2019-05-29T04:31:19.382Z,11.90
2019-05-29T04:33:47.911Z,11.90
2019-05-29T04:36:16.359Z,11.90
2019-05-29T04:38:44.877Z,11.80
2019-05-29T04:41:13.349Z,11.90
2019-05-29T04:43:41.801Z,11.80
2019-05-29T04:46:13.408Z,11.80
2019-05-29T04:48:41.876Z,11.80
2019-05-29T04:51:10.403Z,11.80
2019-05-29T04:53:39.829Z,11.70
2019-05-29T04:56:08.634Z,11.70
2019-05-29T04:58:37.095Z,11.70
2019-05-29T05:01:05.615Z,11.60
2019-05-29T05:03:35.140Z,11.60
2019-05-29T05:06:03.713Z,11.60
2019-05-29T05:08:33.237Z,11.60
2019-05-29T05:11:02.467Z,11.70
2019-05-29T05:13:31.490Z,11.70
2019-05-29T05:16:01.621Z,11.60
2019-05-29T05:18:30.161Z,11.60
2019-05-29T05:20:58.695Z,11.60
2019-05-29T05:23:27.144Z,11.60
2019-05-29T05:25:55.616Z,11.60
2019-05-29T05:28:24.206Z,11.60
2019-05-29T05:30:52.664Z,11.60
2019-05-29T05:33:21.120Z,11.60
2019-05-29T05:35:49.651Z,11.50
2019-05-29T05:38:18.268Z,11.50
2019-05-29T05:40:46.737Z,11.50
2019-05-29T05:43:23.572Z,11.40
2019-05-29T05:45:45.438Z,11.40
2019-05-29T05:48:13.905Z,11.40
2019-05-29T05:50:42.425Z,11.40
2019-05-29T05:53:10.963Z,11.40
2019-05-29T05:55:39.801Z,11.40
2019-05-29T05:58:08.498Z,11.40
2019-05-29T06:00:37.966Z,11.40
2019-05-29T06:03:06.848Z,11.40
2019-05-29T06:05:36.075Z,11.40
2019-05-29T06:08:04.867Z,11.40
2019-05-29T06:10:34.058Z,11.40
2019-05-29T06:13:02.980Z,11.40
2019-05-29T06:15:32.369Z,11.50
2019-05-29T06:18:19.792Z,11.40
2019-05-29T06:20:32.549Z,11.40
2019-05-29T06:23:01.171Z,11.40
2019-05-29T06:25:29.647Z,11.50
2019-05-29T06:27:58.239Z,11.50
2019-05-29T06:30:26.827Z,11.50
2019-05-29T06:32:55.291Z,11.50
2019-05-29T06:35:23.752Z,11.50
2019-05-29T06:37:52.215Z,11.60
2019-05-29T06:40:39.991Z,11.70
2019-05-29T06:43:12.131Z,11.70
2019-05-29T06:45:41.986Z,11.60
2019-05-29T06:48:13.659Z,11.70
2019-05-29T06:50:43.328Z,11.70
2019-05-29T06:53:12.051Z,11.70
2019-05-29T06:55:41.935Z,11.70
2019-05-29T06:58:10.748Z,11.70
2019-05-29T07:00:39.988Z,11.70
2019-05-29T07:03:09.526Z,11.70
2019-05-29T07:05:37.987Z,11.70
2019-05-29T07:08:18.615Z,11.70
2019-05-29T07:10:38.376Z,11.70
2019-05-29T07:13:07.213Z,11.70
2019-05-29T07:15:36.483Z,11.80
2019-05-29T07:18:05.135Z,11.80
2019-05-29T07:20:33.664Z,12.00
2019-05-29T07:23:02.124Z,12.10
2019-05-29T07:25:30.627Z,12.10
2019-05-29T07:27:59.076Z,12.30
2019-05-29T07:30:28.976Z,12.30
2019-05-29T07:32:59.112Z,12.40
2019-05-29T07:35:27.776Z,12.40
2019-05-29T07:37:56.328Z,12.60
2019-05-29T07:40:24.924Z,12.40
2019-05-29T07:42:56.552Z,12.60
2019-05-29T07:45:23.800Z,12.60
2019-05-29T07:47:52.324Z,12.40
2019-05-29T07:50:21.040Z,12.40
2019-05-29T07:52:49.588Z,12.30
2019-05-29T07:55:18.195Z,12.40
2019-05-29T07:57:47.027Z,12.40
2019-05-29T08:00:15.988Z,12.40
2019-05-29T08:02:45.358Z,12.30
2019-05-29T08:05:14.555Z,12.20
2019-05-29T08:07:43.379Z,12.40
2019-05-29T08:10:12.765Z,12.30
2019-05-29T08:12:46.256Z,12.40
2019-05-29T08:15:11.651Z,12.30
2019-05-29T08:17:40.114Z,12.40
2019-05-29T08:20:09.220Z,12.30
2019-05-29T08:22:37.812Z,12.40
2019-05-29T08:25:07.718Z,12.50
2019-05-29T08:27:36.239Z,12.50
2019-05-29T08:30:09.923Z,12.40
2019-05-29T08:32:38.596Z,12.50
2019-05-29T08:35:07.291Z,12.60
2019-05-29T08:37:35.736Z,12.60
2019-05-29T08:40:06.713Z,12.60
2019-05-29T08:42:35.184Z,12.50
2019-05-29T08:45:05.371Z,12.50
2019-05-29T08:47:33.841Z,12.50
2019-05-29T08:50:17.603Z,12.70
2019-05-29T08:52:32.555Z,12.80
2019-05-29T08:55:01.000Z,12.80
2019-05-29T08:57:29.466Z,12.70
2019-05-29T08:59:58.010Z,12.50
2019-05-29T09:02:26.456Z,12.60
2019-05-29T09:04:55.055Z,12.70
2019-05-29T09:07:23.603Z,12.70
2019-05-29T09:09:53.274Z,12.70
2019-05-29T09:12:21.872Z,12.90
2019-05-29T09:14:50.335Z,12.80
2019-05-29T09:17:18.797Z,13.00
2019-05-29T09:19:47.314Z,13.00
2019-05-29T09:22:16.531Z,12.90
2019-05-29T09:24:45.121Z,12.90
2019-05-29T09:27:14.486Z,13.00
2019-05-29T09:29:43.752Z,12.80
2019-05-29T09:32:13.489Z,12.70
2019-05-29T09:34:42.547Z,12.70
2019-05-29T09:37:11.142Z,12.70
2019-05-29T09:39:39.669Z,12.40
2019-05-29T09:42:08.148Z,12.30
2019-05-29T09:44:39.330Z,12.20
2019-05-29T09:47:06.859Z,12.20
2019-05-29T09:49:35.319Z,12.20
2019-05-29T09:52:04.152Z,12.10
2019-05-29T09:54:33.019Z,12.00
2019-05-29T09:57:02.771Z,12.00
2019-05-29T09:59:31.524Z,11.90
2019-05-29T10:02:05.253Z,11.90
2019-05-29T10:04:30.173Z,11.90
2019-05-29T10:06:59.548Z,12.00
2019-05-29T10:09:28.219Z,12.00
2019-05-29T10:12:00.989Z,11.90
2019-05-29T10:14:26.931Z,11.90
2019-05-29T10:16:56.832Z,11.90
2019-05-29T10:19:25.564Z,11.90
2019-05-29T10:21:54.870Z,11.90
2019-05-29T10:24:24.299Z,11.90
2019-05-29T10:26:52.815Z,11.90
2019-05-29T10:29:21.347Z,11.90
2019-05-29T10:31:51.096Z,12.00
2019-05-29T10:34:19.983Z,12.10
2019-05-29T10:36:52.661Z,12.20
2019-05-29T10:39:18.620Z,12.20
2019-05-29T10:41:47.137Z,12.30
2019-05-29T10:44:15.676Z,12.30
2019-05-29T10:46:46.035Z,12.40
2019-05-29T10:49:15.247Z,12.40
2019-05-29T10:52:02.231Z,12.40
2019-05-29T10:54:14.823Z,12.60
2019-05-29T10:56:44.660Z,12.50
2019-05-29T10:59:13.365Z,12.30
2019-05-29T11:01:41.899Z,12.40
2019-05-29T11:04:10.365Z,12.50
2019-05-29T11:06:40.887Z,12.60
2019-05-29T11:09:09.171Z,12.80
2019-05-29T11:11:37.617Z,12.90
2019-05-29T11:14:06.077Z,12.80
2019-05-29T11:16:34.547Z,12.80
2019-05-29T11:19:03.081Z,12.80
2019-05-29T11:21:31.629Z,13.10
2019-05-29T11:24:00.228Z,13.10
2019-05-29T11:26:28.698Z,13.20
2019-05-29T11:28:58.618Z,13.20
2019-05-29T11:31:27.315Z,13.10
2019-05-29T11:33:57.049Z,13.00
2019-05-29T11:36:25.799Z,13.10
2019-05-29T11:38:54.554Z,13.10
2019-05-29T11:41:26.304Z,13.40
2019-05-29T11:43:54.612Z,13.30
2019-05-29T11:46:23.331Z,13.20
2019-05-29T11:48:53.003Z,13.30
2019-05-29T11:51:21.608Z,13.10
2019-05-29T11:53:51.347Z,13.20
2019-05-29T11:56:20.065Z,13.20
2019-05-29T11:58:48.531Z,13.10
2019-05-29T12:01:17.119Z,13.30
2019-05-29T12:04:07.798Z,13.30
2019-05-29T12:06:15.776Z,13.40
2019-05-29T12:08:44.232Z,13.20
2019-05-29T12:11:12.836Z,13.10
2019-05-29T12:13:41.381Z,13.10
2019-05-29T12:16:09.895Z,12.90
2019-05-29T12:18:38.432Z,13.00
2019-05-29T12:21:06.903Z,13.10
2019-05-29T12:23:35.414Z,13.10
2019-05-29T12:26:19.677Z,12.90
2019-05-29T12:28:34.200Z,12.90
2019-05-29T12:31:03.516Z,12.90
2019-05-29T12:33:32.160Z,13.00
2019-05-29T12:36:01.261Z,13.10
2019-05-29T12:38:29.860Z,13.30
2019-05-29T12:40:59.824Z,13.40
2019-05-29T12:43:28.476Z,13.30
2019-05-29T12:45:57.754Z,13.50
2019-05-29T12:48:26.407Z,13.30
2019-05-29T12:50:56.079Z,13.20
2019-05-29T12:53:30.058Z,13.30
2019-05-29T12:55:56.125Z,13.20
2019-05-29T12:58:24.726Z,13.10
2019-05-29T13:00:54.441Z,12.90
2019-05-29T13:03:23.199Z,13.00
2019-05-29T13:05:52.058Z,12.90
2019-05-29T13:08:20.644Z,13.00
2019-05-29T13:10:49.167Z,13.10
2019-05-29T13:13:17.636Z,13.10
2019-05-29T13:15:46.166Z,13.00
2019-05-29T13:18:14.701Z,13.00
2019-05-29T13:20:43.146Z,13.00
2019-05-29T13:23:11.642Z,12.90
2019-05-29T13:25:40.179Z,12.90
2019-05-29T13:28:08.821Z,12.90
2019-05-29T13:30:39.081Z,12.90
2019-05-29T13:33:09.016Z,12.80
2019-05-29T13:35:37.819Z,12.80
2019-05-29T13:38:07.338Z,12.80
2019-05-29T13:40:36.054Z,12.70
2019-05-29T13:43:13.983Z,12.70
2019-05-29T13:45:34.907Z,12.60
2019-05-29T13:48:03.390Z,12.50
2019-05-29T13:50:31.895Z,12.50
2019-05-29T13:53:01.305Z,12.50
2019-05-29T13:55:29.882Z,12.60
2019-05-29T13:57:59.452Z,12.40
2019-05-29T14:00:33.823Z,12.40
2019-05-29T14:02:58.555Z,12.40
2019-05-29T14:05:27.238Z,12.40
2019-05-29T14:08:00.619Z,12.40
2019-05-29T14:10:48.044Z,12.40
2019-05-29T14:13:16.492Z,12.40
2019-05-29T14:15:44.963Z,12.40
2019-05-29T14:18:13.418Z,12.40
2019-05-29T14:20:42.020Z,12.30
2019-05-29T14:23:11.728Z,12.40
2019-05-29T14:25:40.492Z,12.50
2019-05-29T14:28:09.098Z,12.40
2019-05-29T14:30:37.759Z,12.40
2019-05-29T14:33:06.727Z,12.50
2019-05-29T14:35:35.853Z,12.60
2019-05-29T14:38:08.772Z,12.60
2019-05-29T14:40:34.557Z,12.60
2019-05-29T14:43:06.803Z,12.60
2019-05-29T14:45:33.266Z,12.70
2019-05-29T14:48:02.177Z,12.70
2019-05-29T14:50:30.813Z,12.90
2019-05-29T14:52:59.375Z,12.80
2019-05-29T14:55:27.891Z,12.70
2019-05-29T14:57:56.356Z,12.80
2019-05-29T15:00:25.871Z,12.70
2019-05-29T15:02:54.671Z,12.60
2019-05-29T15:05:23.260Z,12.40
2019-05-29T15:07:51.728Z,12.40
2019-05-29T15:10:26.797Z,12.30
2019-05-29T15:12:50.736Z,12.30
2019-05-29T15:15:19.892Z,12.30
2019-05-29T15:17:48.347Z,12.10
2019-05-29T15:20:17.258Z,12.20
2019-05-29T15:22:45.846Z,12.10
2019-05-29T15:25:23.520Z,12.10
2019-05-29T15:27:45.331Z,12.10
2019-05-29T15:30:19.979Z,12.20
2019-05-29T15:32:44.253Z,12.30
2019-05-29T15:35:16.706Z,12.30
2019-05-29T15:37:43.352Z,12.30
2019-05-29T15:40:12.840Z,12.30
2019-05-29T15:42:41.572Z,12.30
2019-05-29T15:45:12.239Z,12.50
2019-05-29T15:47:40.771Z,12.60
2019-05-29T15:50:11.612Z,12.70
2019-05-29T15:52:40.669Z,12.70
2019-05-29T15:55:27.362Z,12.60
2019-05-29T15:57:40.098Z,12.60
2019-05-29T16:00:11.356Z,12.50
2019-05-29T16:02:40.284Z,12.50
2019-05-29T16:05:10.857Z,12.40
2019-05-29T16:07:39.812Z,12.30
2019-05-29T16:10:13.086Z,12.20
2019-05-29T16:12:39.874Z,12.20
2019-05-29T16:15:11.010Z,12.00
2019-05-29T16:17:39.870Z,12.00
2019-05-29T16:20:14.393Z,11.80
2019-05-29T16:22:43.256Z,11.90
2019-05-29T16:25:14.819Z,11.80
2019-05-29T16:27:43.464Z,11.90
2019-05-29T16:30:13.617Z,11.90
2019-05-29T16:32:42.373Z,11.90
2019-05-29T16:35:12.918Z,11.80
2019-05-29T16:37:41.798Z,11.70
2019-05-29T16:40:11.888Z,11.80
2019-05-29T16:42:40.438Z,11.70
2019-05-29T16:45:12.085Z,11.70
2019-05-29T16:47:40.846Z,11.70
2019-05-29T16:50:10.220Z,11.80
2019-05-29T16:52:38.739Z,11.70
2019-05-29T16:55:07.749Z,11.70
2019-05-29T16:57:36.482Z,11.70
2019-05-29T17:00:08.345Z,11.70
2019-05-29T17:02:36.883Z,11.60
2019-05-29T17:05:08.981Z,11.60
2019-05-29T17:07:37.572Z,11.50
2019-05-29T17:10:07.272Z,11.60
2019-05-29T17:12:35.830Z,11.50
2019-05-29T17:15:07.446Z,11.40
2019-05-29T17:17:36.100Z,11.40
2019-05-29T17:20:10.200Z,11.40
2019-05-29T17:22:38.802Z,11.30
2019-05-29T17:25:08.499Z,11.40
2019-05-29T17:27:37.044Z,11.30
2019-05-29T17:30:07.934Z,11.20
2019-05-29T17:32:36.475Z,11.30
2019-05-29T17:35:09.507Z,11.20
2019-05-29T17:37:38.233Z,11.10
2019-05-29T17:40:08.014Z,11.20
2019-05-29T17:42:36.486Z,11.20
2019-05-29T17:45:12.376Z,11.20
2019-05-29T17:47:41.531Z,11.00
2019-05-29T17:50:10.342Z,11.00
2019-05-29T17:52:38.868Z,11.00
2019-05-29T17:55:08.170Z,11.00
2019-05-29T17:57:36.906Z,11.00
2019-05-29T18:00:20.559Z,11.00
2019-05-29T18:02:52.488Z,10.90
2019-05-29T18:05:20.439Z,10.90
2019-05-29T18:07:49.291Z,10.90
2019-05-29T18:10:20.316Z,10.90
2019-05-29T18:12:48.909Z,10.90
2019-05-29T18:15:19.278Z,10.90
2019-05-29T18:17:48.316Z,10.90
2019-05-29T18:20:19.562Z,10.90
2019-05-29T18:22:48.219Z,10.90
2019-05-29T18:25:18.015Z,10.90
2019-05-29T18:27:46.787Z,10.90
2019-05-29T18:30:15.560Z,10.80
2019-05-29T18:32:44.167Z,10.80
2019-05-29T18:35:12.852Z,10.80
2019-05-29T18:37:41.465Z,10.80
2019-05-29T18:40:12.602Z,10.80
2019-05-29T18:42:40.991Z,10.70
2019-05-29T18:45:20.172Z,10.60
2019-05-29T18:47:41.380Z,10.60
2019-05-29T18:50:10.890Z,10.60
2019-05-29T18:52:39.507Z,10.50
2019-05-29T18:55:08.739Z,10.50
2019-05-29T18:57:37.391Z,10.40
2019-05-29T19:00:10.159Z,10.40
2019-05-29T19:02:38.639Z,10.40
2019-05-29T19:05:07.723Z,10.30
2019-05-29T19:07:36.171Z,10.40
2019-05-29T19:10:09.407Z,10.40
2019-05-29T19:12:37.857Z,10.50
2019-05-29T19:15:07.693Z,10.50
2019-05-29T19:17:37.617Z,10.40
2019-05-29T19:20:07.322Z,10.40
2019-05-29T19:22:36.276Z,10.30
2019-05-29T19:25:06.979Z,10.30
2019-05-29T19:27:41.326Z,10.30
2019-05-29T19:30:08.301Z,10.40
2019-05-29T19:32:37.265Z,10.40
2019-05-29T19:35:08.486Z,10.40
2019-05-29T19:37:37.568Z,10.40
2019-05-29T19:40:07.337Z,10.40
2019-05-29T19:42:36.054Z,10.40
2019-05-29T19:45:09.693Z,10.40
2019-05-29T19:47:38.348Z,10.50
2019-05-29T19:50:11.189Z,10.50
2019-05-29T19:52:39.208Z,10.50
2019-05-29T19:55:08.721Z,10.40
2019-05-29T19:57:52.616Z,10.40
2019-05-29T20:00:10.394Z,10.40
2019-05-29T20:02:39.947Z,10.30
2019-05-29T20:05:09.042Z,10.40
2019-05-29T20:07:37.723Z,10.40
2019-05-29T20:10:07.919Z,10.40
2019-05-29T20:12:37.903Z,10.30
2019-05-29T20:15:08.123Z,10.30
2019-05-29T20:17:36.668Z,10.30
2019-05-29T20:20:06.527Z,10.30
2019-05-29T20:22:35.044Z,10.20
2019-05-29T20:25:04.544Z,10.20
2019-05-29T20:27:34.110Z,10.20
2019-05-29T20:30:03.628Z,10.20
2019-05-29T20:32:32.566Z,10.20
2019-05-29T20:35:01.039Z,10.30
2019-05-29T20:37:30.014Z,10.30
2019-05-29T20:39:58.677Z,10.20
2019-05-29T20:42:27.195Z,10.20
2019-05-29T20:44:55.667Z,10.10
2019-05-29T20:47:24.136Z,10.00
2019-05-29T20:49:52.582Z,9.90
2019-05-29T20:52:21.123Z,10.00
2019-05-29T20:54:49.572Z,10.00
2019-05-29T20:57:18.045Z,10.00
2019-05-29T20:59:46.492Z,10.00
2019-05-29T21:02:14.938Z,10.00
2019-05-29T21:04:43.407Z,9.90
2019-05-29T21:07:11.862Z,9.90
2019-05-29T21:09:41.087Z,10.00
2019-05-29T21:12:09.706Z,10.00
2019-05-29T21:14:38.232Z,9.90
2019-05-29T21:17:06.783Z,10.00
2019-05-29T21:19:36.454Z,9.90
2019-05-29T21:22:05.159Z,9.90
2019-05-29T21:24:34.578Z,9.90
2019-05-29T21:27:03.224Z,9.80
2019-05-29T21:29:31.829Z,9.80
2019-05-29T21:32:00.279Z,9.80
2019-05-29T21:34:28.739Z,9.80
2019-05-29T21:36:57.184Z,9.80
2019-05-29T21:39:25.647Z,9.80
2019-05-29T21:41:54.087Z,9.80
2019-05-29T21:44:22.551Z,9.80
2019-05-29T21:46:50.995Z,9.80
2019-05-29T21:49:19.455Z,9.80
2019-05-29T21:51:48.020Z,9.80
2019-05-29T21:54:16.511Z,9.80
2019-05-29T21:56:45.836Z,9.80
2019-05-29T21:59:15.031Z,9.70
2019-05-29T22:01:44.102Z,9.70
2019-05-29T22:04:12.855Z,9.70
2019-05-29T22:06:42.623Z,9.70
2019-05-29T22:09:13.491Z,9.50
2019-05-29T22:11:42.475Z,9.60
2019-05-29T22:14:11.143Z,9.60
2019-05-29T22:16:39.660Z,9.70
2019-05-29T22:19:08.263Z,9.70
2019-05-29T22:21:41.093Z,9.70
2019-05-29T22:24:09.552Z,9.70
2019-05-29T22:26:37.994Z,9.60
2019-05-29T22:29:17.752Z,9.60
2019-05-29T22:31:36.707Z,9.60
2019-05-29T22:34:05.245Z,9.70
2019-05-29T22:36:33.755Z,9.60
2019-05-29T22:39:02.198Z,9.60
2019-05-29T22:41:30.674Z,9.60
2019-05-29T22:43:59.728Z,9.50
2019-05-29T22:46:28.372Z,9.50
2019-05-29T22:48:57.837Z,9.50
2019-05-29T22:51:26.441Z,9.60
2019-05-29T22:53:55.774Z,9.40
2019-05-29T22:56:24.330Z,9.50
2019-05-29T22:58:53.988Z,9.60
2019-05-29T23:01:22.581Z,9.60
2019-05-29T23:03:52.028Z,9.60
2019-05-29T23:06:20.559Z,9.50
2019-05-29T23:08:49.004Z,9.40
2019-05-29T23:11:17.538Z,9.50
2019-05-29T23:13:46.069Z,9.40
2019-05-29T23:16:14.581Z,9.40
2019-05-29T23:18:43.036Z,9.40
2019-05-29T23:21:11.502Z,9.30
2019-05-29T23:23:39.948Z,9.50
2019-05-29T23:26:08.551Z,9.50
2019-05-29T23:28:37.079Z,9.50
2019-05-29T23:31:05.661Z,9.40
2019-05-29T23:33:34.123Z,9.40
2019-05-29T23:36:03.232Z,9.40
2019-05-29T23:38:31.900Z,9.50
2019-05-29T23:41:01.504Z,9.50
2019-05-29T23:43:30.104Z,9.50
2019-05-29T23:45:59.466Z,9.50
2019-05-29T23:48:28.049Z,9.50
2019-05-29T23:50:57.527Z,9.50
2019-05-29T23:53:26.100Z,9.30
2019-05-29T23:55:55.634Z,9.30
2019-05-29T23:58:24.296Z,9.20
